Time;durP1;ratioP1;P1;durP2;ratioP2;P2;SDS_P1;SDS_P2;PMS_P1;PMS_P2;Temp;Humidity;BMP_temperature;BMP_pressure;BME280_temperature;BME280_humidity;BME280_pressure;Samples;Min_cycle;Max_cycle;Signal;HPM_P1;HPM_P2
2021/09/25 00:00:02;;;;;;;9.38;3.58;;;21.20;55.20;;;;;;6230450;28;80557;-62
2021/09/25 00:03:05;;;;;;;6.47;3.58;;;21.20;55.20;;;;;;6231668;27;80509;-62
2021/09/25 00:06:06;;;;;;;4.95;3.05;;;21.20;55.20;;;;;;6233544;27;80202;-62
2021/09/25 00:09:06;;;;;;;7.70;3.60;;;21.20;55.40;;;;;;6232450;28;81009;-62
2021/09/25 00:12:07;;;;;;;5.88;3.20;;;21.20;55.40;;;;;;6232130;28;80525;-62
2021/09/25 00:15:07;;;;;;;4.72;2.80;;;21.20;55.50;;;;;;6231919;27;80654;-62
2021/09/25 00:18:08;;;;;;;5.82;3.13;;;21.20;55.30;;;;;;6231523;28;83567;-62
2021/09/25 00:21:08;;;;;;;5.57;3.10;;;21.10;55.30;;;;;;6233215;28;81164;-62
2021/09/25 00:24:08;;;;;;;5.13;3.05;;;21.20;55.60;;;;;;6228826;27;80962;-62
2021/09/25 00:27:09;;;;;;;5.47;3.38;;;21.10;55.40;;;;;;6232181;27;81007;-62
2021/09/25 00:30:10;;;;;;;6.72;3.40;;;21.20;55.70;;;;;;6226333;28;81192;-61
2021/09/25 00:33:10;;;;;;;4.78;2.97;;;21.10;55.30;;;;;;6230314;27;80381;-62
2021/09/25 00:36:11;;;;;;;6.38;3.40;;;21.10;55.30;;;;;;6237752;27;80373;-62
2021/09/25 00:39:11;;;;;;;6.18;3.28;;;21.20;55.30;;;;;;6232774;27;81355;-62
2021/09/25 00:42:11;;;;;;;3.47;2.60;;;21.20;55.40;;;;;;6232156;27;80684;-62
2021/09/25 00:45:12;;;;;;;4.20;2.67;;;21.20;55.40;;;;;;6227824;27;82488;-62
2021/09/25 00:48:12;;;;;;;6.13;3.17;;;21.10;55.40;;;;;;6233640;27;80407;-62
2021/09/25 00:51:13;;;;;;;5.55;2.95;;;21.10;55.50;;;;;;6223782;28;80186;-61
2021/09/25 00:54:14;;;;;;;4.20;2.55;;;21.10;55.60;;;;;;6230785;27;81559;-61
2021/09/25 00:57:14;;;;;;;4.93;2.85;;;21.10;55.50;;;;;;6229965;28;80599;-62
2021/09/25 01:00:15;;;;;;;4.95;2.70;;;21.10;55.50;;;;;;6232121;27;80272;-61
2021/09/25 01:03:15;;;;;;;4.03;2.80;;;21.10;55.40;;;;;;6232197;28;80508;-62
2021/09/25 01:06:16;;;;;;;6.65;2.95;;;21.10;55.40;;;;;;6230932;28;82003;-63
2021/09/25 01:09:16;;;;;;;5.50;3.53;;;21.10;55.20;;;;;;6218113;28;82155;-62
2021/09/25 01:12:17;;;;;;;6.88;3.35;;;21.10;55.50;;;;;;6230492;28;83241;-62
2021/09/25 01:15:17;;;;;;;5.45;2.90;;;21.10;55.20;;;;;;6233091;27;80943;-62
2021/09/25 01:18:18;;;;;;;6.03;2.85;;;21.10;55.50;;;;;;6229054;27;81448;-62
2021/09/25 01:21:18;;;;;;;3.85;2.60;;;21.10;55.30;;;;;;6222712;28;80625;-62
2021/09/25 01:24:19;;;;;;;5.32;2.88;;;21.10;55.40;;;;;;6238348;27;80778;-62
2021/09/25 01:27:20;;;;;;;8.10;2.72;;;21.10;55.30;;;;;;6232160;27;80458;-62
2021/09/25 01:30:20;;;;;;;4.88;2.60;;;21.10;55.20;;;;;;6233517;28;80674;-62
2021/09/25 01:33:21;;;;;;;5.00;3.15;;;21.10;55.40;;;;;;6231057;27;80404;-62
2021/09/25 01:36:21;;;;;;;5.00;2.70;;;21.10;55.50;;;;;;6229695;27;80643;-61
2021/09/25 01:39:22;;;;;;;5.18;2.75;;;21.10;55.20;;;;;;6231359;28;80533;-61
2021/09/25 01:42:22;;;;;;;4.05;2.95;;;21.10;55.40;;;;;;6230850;28;81095;-62
2021/09/25 01:45:23;;;;;;;4.35;2.90;;;21.10;55.60;;;;;;6226635;27;81556;-62
2021/09/25 01:48:23;;;;;;;4.03;2.60;;;21.10;55.50;;;;;;6230060;28;81779;-62
2021/09/25 01:51:24;;;;;;;5.97;2.90;;;21.10;55.50;;;;;;6230998;28;80357;-62
2021/09/25 01:54:24;;;;;;;4.30;2.90;;;21.10;55.30;;;;;;6223212;28;81932;-61
2021/09/25 01:57:25;;;;;;;4.57;2.45;;;21.10;55.50;;;;;;6238884;27;80459;-62
2021/09/25 02:00:25;;;;;;;3.92;2.83;;;21.10;55.20;;;;;;6228856;27;80348;-62
2021/09/25 02:03:26;;;;;;;5.63;2.55;;;21.10;55.30;;;;;;6222003;28;80478;-63
2021/09/25 02:06:26;;;;;;;4.00;2.53;;;21.10;55.40;;;;;;6229779;27;80537;-61
2021/09/25 02:09:27;;;;;;;5.90;2.88;;;21.10;55.80;;;;;;6221816;28;80352;-62
2021/09/25 02:12:27;;;;;;;4.18;2.63;;;21.10;55.70;;;;;;6228760;28;81767;-62
2021/09/25 02:15:29;;;;;;;4.07;2.70;;;21.10;55.60;;;;;;6230509;27;80214;-62
2021/09/25 02:18:30;;;;;;;4.70;2.50;;;21.10;55.70;;;;;;6224573;28;80466;-61
2021/09/25 02:21:31;;;;;;;3.88;2.55;;;21.10;55.80;;;;;;6230234;27;80831;-61
2021/09/25 02:24:32;;;;;;;4.80;2.70;;;21.10;55.30;;;;;;6227397;28;81383;-62
2021/09/25 02:27:32;;;;;;;5.00;2.72;;;21.10;55.70;;;;;;6232358;27;80558;-61
2021/09/25 02:30:33;;;;;;;3.85;2.38;;;21.10;55.70;;;;;;6234180;28;80123;-62
2021/09/25 02:33:33;;;;;;;4.53;2.85;;;21.10;55.80;;;;;;6229572;27;81152;-62
2021/09/25 02:36:34;;;;;;;5.22;2.95;;;21.10;55.60;;;;;;6224593;28;80466;-62
2021/09/25 02:39:34;;;;;;;3.95;2.60;;;21.10;56.00;;;;;;6231429;27;80608;-61
2021/09/25 02:42:35;;;;;;;4.20;2.60;;;21.10;55.80;;;;;;6210475;28;83023;-62
2021/09/25 02:45:35;;;;;;;3.85;2.05;;;21.10;55.90;;;;;;6233514;27;82282;-62
2021/09/25 02:48:36;;;;;;;4.85;2.60;;;21.10;55.70;;;;;;6238855;27;80532;-62
2021/09/25 02:51:36;;;;;;;3.85;2.38;;;21.10;55.90;;;;;;6238391;27;81517;-62
2021/09/25 02:54:37;;;;;;;3.72;2.08;;;21.10;55.90;;;;;;6219577;28;88069;-62
2021/09/25 02:57:37;;;;;;;2.22;1.92;;;21.10;56.00;;;;;;6197452;28;80762;-62
2021/09/25 03:00:38;;;;;;;3.22;2.25;;;21.10;56.10;;;;;;6222298;28;80282;-62
2021/09/25 03:03:38;;;;;;;3.88;2.75;;;21.10;56.30;;;;;;6232003;28;81103;-62
2021/09/25 03:06:39;;;;;;;4.78;2.83;;;21.10;56.10;;;;;;6233404;27;80716;-62
2021/09/25 03:09:40;;;;;;;4.45;2.20;;;21.10;56.40;;;;;;6230883;27;81154;-62
2021/09/25 03:12:40;;;;;;;4.25;2.63;;;21.10;55.90;;;;;;6233991;27;80522;-62
2021/09/25 03:15:41;;;;;;;2.42;1.73;;;21.10;56.20;;;;;;6232136;28;81505;-63
2021/09/25 03:18:41;;;;;;;3.13;2.40;;;21.10;56.10;;;;;;6235265;28;80713;-62
2021/09/25 03:21:42;;;;;;;3.47;2.20;;;21.10;56.30;;;;;;6231020;28;81472;-62
2021/09/25 03:24:42;;;;;;;2.65;2.00;;;21.10;56.00;;;;;;6225351;28;81303;-62
2021/09/25 03:27:43;;;;;;;4.20;2.45;;;21.10;56.00;;;;;;6239109;27;80687;-62
2021/09/25 03:30:43;;;;;;;4.25;2.20;;;21.10;56.40;;;;;;6233725;28;80875;-62
2021/09/25 03:33:44;;;;;;;4.50;2.45;;;21.10;56.30;;;;;;6230752;27;81337;-62
2021/09/25 03:36:44;;;;;;;3.70;2.58;;;21.10;56.20;;;;;;6233155;28;81240;-62
2021/09/25 03:39:45;;;;;;;3.55;2.80;;;21.10;56.30;;;;;;6234574;27;80100;-62
2021/09/25 03:42:45;;;;;;;4.25;2.42;;;21.10;56.30;;;;;;6225199;27;81343;-60
2021/09/25 03:45:46;;;;;;;3.00;2.08;;;21.10;56.30;;;;;;6223541;27;81600;-61
2021/09/25 03:48:46;;;;;;;3.30;2.17;;;21.10;56.70;;;;;;6217762;27;80428;-60
2021/09/25 03:51:47;;;;;;;3.65;2.40;;;21.00;56.30;;;;;;6231546;27;82553;-61
2021/09/25 03:54:47;;;;;;;4.60;2.50;;;21.10;56.30;;;;;;6233484;27;80442;-60
2021/09/25 03:57:48;;;;;;;2.90;1.92;;;21.10;56.50;;;;;;6232450;27;81397;-61
2021/09/25 04:00:48;;;;;;;3.15;2.17;;;21.10;56.50;;;;;;6233693;27;80435;-60
2021/09/25 04:03:49;;;;;;;3.10;2.10;;;21.10;56.40;;;;;;6234144;27;80838;-61
2021/09/25 04:06:49;;;;;;;2.95;2.05;;;21.10;56.50;;;;;;6232447;28;80618;-61
2021/09/25 04:09:50;;;;;;;4.03;2.42;;;21.10;56.50;;;;;;6233369;27;81190;-60
2021/09/25 04:12:50;;;;;;;3.80;2.00;;;21.10;56.30;;;;;;6231381;27;80721;-61
2021/09/25 04:15:51;;;;;;;5.13;2.30;;;21.10;56.70;;;;;;6231665;27;81438;-61
2021/09/25 04:18:51;;;;;;;3.22;2.22;;;21.10;56.50;;;;;;6220583;28;81799;-60
2021/09/25 04:21:52;;;;;;;4.13;2.58;;;21.10;56.30;;;;;;6233585;27;80243;-60
2021/09/25 04:24:52;;;;;;;5.93;2.45;;;21.10;56.30;;;;;;6230295;27;80795;-61
2021/09/25 04:27:53;;;;;;;4.38;2.08;;;21.10;56.40;;;;;;6232500;27;80284;-62
2021/09/25 04:30:53;;;;;;;3.25;2.50;;;21.10;56.40;;;;;;6231117;27;80844;-62
2021/09/25 04:33:54;;;;;;;2.58;2.30;;;21.10;56.80;;;;;;6230607;27;81461;-62
2021/09/25 04:36:54;;;;;;;4.00;2.05;;;21.10;57.10;;;;;;6231994;27;80172;-61
2021/09/25 04:39:55;;;;;;;4.88;2.55;;;21.10;57.10;;;;;;6231439;27;80748;-60
2021/09/25 04:42:55;;;;;;;4.50;2.42;;;21.10;56.50;;;;;;6228346;27;80364;-62
2021/09/25 04:45:56;;;;;;;3.25;2.40;;;21.10;57.00;;;;;;6230248;27;81076;-62
2021/09/25 04:48:56;;;;;;;3.10;2.33;;;21.10;57.20;;;;;;6231899;27;80891;-63
2021/09/25 04:51:57;;;;;;;17.58;3.60;;;21.10;57.40;;;;;;6232791;27;81325;-62
2021/09/25 04:54:57;;;;;;;7.32;2.70;;;21.10;57.60;;;;;;6231172;27;80515;-62
2021/09/25 04:57:58;;;;;;;6.00;2.70;;;21.10;57.60;;;;;;6229009;27;80821;-62
2021/09/25 05:00:58;;;;;;;5.18;2.70;;;21.10;58.20;;;;;;6230360;27;80670;-61
2021/09/25 05:04:01;;;;;;;5.85;2.97;;;21.10;58.20;;;;;;6231557;27;81531;-62
2021/09/25 05:07:02;;;;;;;7.22;3.38;;;21.10;58.10;;;;;;6231778;28;81056;-62
2021/09/25 05:10:02;;;;;;;3.85;3.00;;;21.10;59.80;;;;;;6232263;27;80558;-62
2021/09/25 05:13:03;;;;;;;4.07;3.05;;;21.20;59.50;;;;;;6230984;27;82380;-65
2021/09/25 05:16:03;;;;;;;10.43;3.55;;;21.20;61.80;;;;;;6227877;27;80405;-62
2021/09/25 05:19:04;;;;;;;6.30;2.97;;;21.20;62.30;;;;;;6226251;28;81331;-61
2021/09/25 05:22:04;;;;;;;5.80;3.00;;;21.20;61.90;;;;;;6231765;27;80447;-60
2021/09/25 05:25:06;;;;;;;9.48;3.85;;;21.20;62.00;;;;;;6230386;28;81484;-60
2021/09/25 05:28:06;;;;;;;6.95;3.83;;;21.10;61.60;;;;;;6229712;27;80610;-61
2021/09/25 05:31:09;;;;;;;7.15;3.40;;;21.20;62.00;;;;;;6230796;27;80999;-60
2021/09/25 05:34:09;;;;;;;6.75;3.33;;;21.10;61.40;;;;;;6225159;28;80565;-62
2021/09/25 05:37:11;;;;;;;5.28;3.13;;;21.10;61.40;;;;;;6231937;28;81145;-61
2021/09/25 05:40:12;;;;;;;6.50;3.33;;;21.20;61.20;;;;;;6231021;28;83010;-61
2021/09/25 05:43:12;;;;;;;5.60;2.85;;;21.20;61.10;;;;;;6230202;27;80782;-61
2021/09/25 05:46:13;;;;;;;4.95;3.22;;;21.10;61.20;;;;;;6219863;28;82891;-61
2021/09/25 05:49:13;;;;;;;6.03;2.78;;;21.20;61.10;;;;;;6214039;28;80578;-61
2021/09/25 05:52:14;;;;;;;6.05;3.00;;;21.20;61.30;;;;;;6226045;28;81910;-60
2021/09/25 05:55:14;;;;;;;5.45;2.60;;;21.20;61.20;;;;;;6228900;28;82980;-63
2021/09/25 05:58:15;;;;;;;7.70;2.67;;;21.20;61.20;;;;;;6231055;28;83155;-61
2021/09/25 06:01:15;;;;;;;4.15;3.05;;;21.30;61.30;;;;;;6222103;28;83488;-61
2021/09/25 06:04:16;;;;;;;11.48;3.15;;;21.30;61.30;;;;;;6229799;28;81754;-62
2021/09/25 06:07:18;;;;;;;6.35;2.85;;;21.30;61.50;;;;;;6228018;27;82299;-62
2021/09/25 06:10:18;;;;;;;8.93;2.92;;;21.30;61.40;;;;;;6226176;27;80491;-62
2021/09/25 06:13:19;;;;;;;8.00;2.67;;;21.30;61.30;;;;;;6226164;28;80681;-64
2021/09/25 06:16:19;;;;;;;7.68;3.90;;;21.30;61.40;;;;;;6206813;28;80443;-62
2021/09/25 06:19:20;;;;;;;4.30;2.80;;;21.20;61.40;;;;;;6204942;28;81722;-62
2021/09/25 06:22:20;;;;;;;8.02;3.28;;;21.20;61.80;;;;;;6224619;28;80572;-61
2021/09/25 06:25:21;;;;;;;6.07;3.20;;;21.20;61.90;;;;;;6229316;28;80646;-61
2021/09/25 06:28:21;;;;;;;5.13;3.28;;;21.20;61.70;;;;;;6227881;27;80826;-62
2021/09/25 06:31:22;;;;;;;5.95;3.00;;;21.20;61.50;;;;;;6227712;28;80289;-61
2021/09/25 06:34:23;;;;;;;7.10;3.30;;;21.20;61.50;;;;;;6230878;27;82648;-62
2021/09/25 06:37:23;;;;;;;14.00;4.25;;;21.20;62.30;;;;;;6225742;27;80662;-63
2021/09/25 06:40:24;;;;;;;8.60;4.05;;;21.30;63.10;;;;;;6226074;28;81440;-62
2021/09/25 06:43:24;;;;;;;13.00;4.30;;;21.20;63.70;;;;;;6228561;28;80292;-62
2021/09/25 06:46:25;;;;;;;9.80;4.30;;;21.20;63.10;;;;;;6230358;28;80797;-62
2021/09/25 06:49:26;;;;;;;16.58;4.88;;;21.20;63.10;;;;;;6230419;27;80452;-62
2021/09/25 06:52:27;;;;;;;9.98;3.97;;;21.20;63.20;;;;;;6227401;28;83675;-62
2021/09/25 06:55:28;;;;;;;13.60;4.13;;;21.20;63.70;;;;;;6205948;28;82231;-62
2021/09/25 06:58:28;;;;;;;12.60;4.57;;;21.10;63.40;;;;;;6202952;28;80799;-62
2021/09/25 07:01:29;;;;;;;11.38;4.90;;;21.10;64.40;;;;;;6194868;28;81615;-62
2021/09/25 07:04:30;;;;;;;12.63;4.13;;;21.20;63.70;;;;;;6217471;28;81139;-62
2021/09/25 07:07:30;;;;;;;9.35;3.47;;;21.20;63.30;;;;;;6226241;28;81535;-62
2021/09/25 07:10:31;;;;;;;14.60;4.65;;;21.20;63.10;;;;;;6227663;27;80926;-62
2021/09/25 07:13:31;;;;;;;18.00;5.93;;;21.20;63.40;;;;;;6226254;28;80676;-62
2021/09/25 07:16:32;;;;;;;17.13;5.00;;;21.20;63.20;;;;;;6230428;28;80576;-62
2021/09/25 07:19:32;;;;;;;27.83;6.18;;;21.20;63.40;;;;;;6224734;28;81251;-63
2021/09/25 07:22:33;;;;;;;17.63;6.47;;;21.20;63.70;;;;;;6226459;27;80573;-63
2021/09/25 07:25:34;;;;;;;20.67;5.35;;;21.30;64.00;;;;;;6222751;28;80764;-63
2021/09/25 07:28:35;;;;;;;15.40;5.03;;;21.20;64.10;;;;;;6225950;28;80876;-63
2021/09/25 07:31:35;;;;;;;23.17;6.70;;;21.20;64.70;;;;;;6231209;27;80500;-63
2021/09/25 07:34:36;;;;;;;25.73;10.15;;;21.20;64.80;;;;;;6228240;27;80937;-62
2021/09/25 07:37:36;;;;;;;21.38;8.65;;;21.20;66.30;;;;;;6222088;27;83644;-62
2021/09/25 07:40:37;;;;;;;19.67;7.70;;;21.30;65.50;;;;;;6227947;28;84403;-63
2021/09/25 07:43:37;;;;;;;19.88;7.55;;;21.30;65.70;;;;;;6231916;28;80450;-62
2021/09/25 07:46:38;;;;;;;16.80;7.95;;;21.30;66.80;;;;;;6224892;28;80399;-62
2021/09/25 07:49:38;;;;;;;17.67;7.80;;;21.30;67.90;;;;;;6226214;28;80528;-61
2021/09/25 07:52:41;;;;;;;21.38;7.65;;;21.30;67.50;;;;;;6227289;27;82634;-61
2021/09/25 07:55:42;;;;;;;22.17;8.85;;;21.30;68.20;;;;;;6230136;28;80420;-62
2021/09/25 07:58:42;;;;;;;15.90;7.40;;;21.40;69.90;;;;;;6231334;28;80568;-62
2021/09/25 08:01:43;;;;;;;22.27;9.00;;;21.40;69.00;;;;;;6229862;27;80760;-61
2021/09/25 08:04:43;;;;;;;16.77;8.93;;;21.40;69.30;;;;;;6228724;28;80567;-62
2021/09/25 08:07:44;;;;;;;27.02;9.95;;;21.40;72.80;;;;;;6224496;27;80844;-62
2021/09/25 08:10:44;;;;;;;15.25;8.65;;;21.40;70.90;;;;;;6232536;27;80610;-63
2021/09/25 08:13:45;;;;;;;17.80;9.00;;;21.40;69.90;;;;;;6230014;27;81512;-62
2021/09/25 08:16:45;;;;;;;17.88;8.55;;;21.40;72.00;;;;;;6231226;27;80503;-62
2021/09/25 08:19:46;;;;;;;21.42;10.35;;;21.40;72.70;;;;;;6223929;27;80482;-63
2021/09/25 08:22:47;;;;;;;18.45;9.57;;;21.40;74.10;;;;;;6217921;27;82890;-61
2021/09/25 08:25:47;;;;;;;16.42;9.10;;;21.40;73.90;;;;;;6227918;28;82611;-63
2021/09/25 08:28:48;;;;;;;11.80;7.65;;;21.40;73.30;;;;;;6224292;28;80872;-62
2021/09/25 08:31:48;;;;;;;15.07;8.38;;;21.40;70.40;;;;;;6223376;28;82205;-64
2021/09/25 08:34:49;;;;;;;12.95;7.68;;;21.40;70.40;;;;;;6230548;27;80230;-63
2021/09/25 08:37:49;;;;;;;14.10;7.90;;;21.40;71.00;;;;;;6228912;28;80428;-62
2021/09/25 08:40:50;;;;;;;13.10;7.30;;;21.40;71.60;;;;;;6230982;28;80207;-62
2021/09/25 08:43:50;;;;;;;13.57;6.35;;;21.40;71.10;;;;;;6230117;27;81492;-62
2021/09/25 08:46:51;;;;;;;12.20;6.53;;;21.40;71.60;;;;;;6226423;28;81371;-62
2021/09/25 08:49:52;;;;;;;13.80;7.25;;;21.40;71.70;;;;;;6228062;28;83747;-62
2021/09/25 08:52:52;;;;;;;16.60;7.78;;;21.40;71.20;;;;;;6228457;27;85801;-62
2021/09/25 08:55:53;;;;;;;12.15;6.20;;;21.40;71.70;;;;;;6226929;28;81431;-63
2021/09/25 08:58:53;;;;;;;10.90;5.53;;;21.40;70.50;;;;;;6205339;28;81047;-61
2021/09/25 09:01:54;;;;;;;9.32;6.15;;;21.40;70.60;;;;;;6231960;28;81679;-61
2021/09/25 09:04:54;;;;;;;8.63;5.35;;;21.40;71.20;;;;;;6222203;27;81207;-63
2021/09/25 09:07:59;;;;;;;11.13;6.03;;;21.40;71.00;;;;;;6226163;27;83220;-62
2021/09/25 09:10:59;;;;;;;10.75;5.55;;;21.40;70.50;;;;;;6224828;27;81000;-62
2021/09/25 09:14:00;;;;;;;9.32;4.63;;;21.40;70.20;;;;;;6222702;28;80918;-63
2021/09/25 09:17:01;;;;;;;13.65;5.30;;;21.40;69.50;;;;;;6224411;27;81133;-63
2021/09/25 09:20:01;;;;;;;11.43;5.38;;;21.40;69.00;;;;;;6221615;27;80375;-63
2021/09/25 09:23:02;;;;;;;15.32;5.47;;;21.40;69.10;;;;;;6228219;28;82071;-62
2021/09/25 09:26:03;;;;;;;10.60;5.05;;;21.50;68.50;;;;;;6231726;27;84750;-62
2021/09/25 09:29:03;;;;;;;11.77;5.10;;;21.40;68.50;;;;;;6228516;27;81762;-63
2021/09/25 09:32:04;;;;;;;11.93;5.65;;;21.50;68.60;;;;;;6228418;28;80295;-62
2021/09/25 09:35:04;;;;;;;10.35;4.05;;;21.40;68.80;;;;;;6223803;27;80401;-62
2021/09/25 09:38:05;;;;;;;10.40;4.45;;;21.50;68.10;;;;;;6226762;27;80707;-62
2021/09/25 09:41:05;;;;;;;19.70;4.90;;;21.40;68.10;;;;;;6226099;28;81360;-61
2021/09/25 09:44:06;;;;;;;10.48;4.72;;;21.50;68.30;;;;;;6224068;28;80687;-62
2021/09/25 09:47:07;;;;;;;15.23;5.03;;;21.50;68.40;;;;;;6228399;27;81708;-60
2021/09/25 09:50:07;;;;;;;13.90;5.93;;;21.40;68.80;;;;;;6227689;28;80770;-61
2021/09/25 09:53:08;;;;;;;16.63;4.85;;;21.40;70.10;;;;;;6226059;28;81230;-61
2021/09/25 09:56:08;;;;;;;9.50;4.88;;;21.40;69.40;;;;;;6222171;28;80757;-61
2021/09/25 09:59:09;;;;;;;10.77;5.05;;;21.50;69.70;;;;;;6225827;28;80172;-62
2021/09/25 10:02:09;;;;;;;9.68;4.57;;;21.40;70.00;;;;;;6227765;28;81007;-61
2021/09/25 10:05:10;;;;;;;10.60;5.00;;;21.40;69.30;;;;;;6228495;28;81013;-62
2021/09/25 10:08:11;;;;;;;10.65;4.22;;;21.40;69.90;;;;;;6234895;27;80130;-63
2021/09/25 10:11:11;;;;;;;12.07;4.53;;;21.50;70.10;;;;;;6231592;27;81509;-62
2021/09/25 10:14:12;;;;;;;5.60;3.70;;;21.40;70.00;;;;;;6233344;27;81037;-61
2021/09/25 10:17:12;;;;;;;15.57;4.15;;;21.50;70.40;;;;;;6231970;27;85788;-62
2021/09/25 10:20:13;;;;;;;12.73;4.55;;;21.50;69.10;;;;;;6228959;27;80445;-61
2021/09/25 10:23:13;;;;;;;8.48;4.30;;;21.50;68.50;;;;;;6228883;28;81635;-61
2021/09/25 10:26:14;;;;;;;9.32;4.43;;;21.50;69.30;;;;;;6227355;28;82649;-62
2021/09/25 10:29:14;;;;;;;9.15;3.85;;;21.40;69.30;;;;;;6228096;28;81658;-62
2021/09/25 10:32:15;;;;;;;11.88;4.30;;;21.40;69.20;;;;;;6230689;28;80201;-62
2021/09/25 10:35:15;;;;;;;11.02;4.40;;;21.40;69.50;;;;;;6231524;27;80667;-62
2021/09/25 10:38:16;;;;;;;9.85;3.92;;;21.40;69.60;;;;;;6230583;28;80326;-62
2021/09/25 10:41:16;;;;;;;8.27;3.90;;;21.50;69.40;;;;;;6232414;28;80802;-62
2021/09/25 10:44:17;;;;;;;9.40;3.92;;;21.50;69.30;;;;;;6222540;28;81038;-62
2021/09/25 10:47:18;;;;;;;12.07;4.40;;;21.50;69.20;;;;;;6228620;28;80089;-62
2021/09/25 10:50:18;;;;;;;7.10;4.18;;;21.60;69.20;;;;;;6231081;27;80617;-61
2021/09/25 10:53:19;;;;;;;7.00;4.07;;;21.50;69.60;;;;;;6229997;27;80386;-62
2021/09/25 10:56:19;;;;;;;6.78;3.78;;;21.40;69.50;;;;;;6224196;28;81218;-62
2021/09/25 10:59:20;;;;;;;6.32;3.80;;;21.40;69.60;;;;;;6224599;27;80541;-61
2021/09/25 11:02:20;;;;;;;6.95;3.42;;;21.50;69.50;;;;;;6234187;27;80419;-62
2021/09/25 11:05:21;;;;;;;14.00;4.03;;;21.50;68.80;;;;;;6230229;28;80625;-63
2021/09/25 11:08:21;;;;;;;4.88;3.67;;;21.60;68.30;;;;;;6235447;27;80726;-62
2021/09/25 11:11:26;;;;;;;5.85;3.90;;;21.60;69.00;;;;;;6234491;27;80373;-62
2021/09/25 11:14:29;;;;;;;5.90;3.53;;;21.60;68.40;;;;;;6231097;27;80451;-62
2021/09/25 11:17:30;;;;;;;5.93;3.80;;;21.60;68.40;;;;;;6235396;28;80342;-64
2021/09/25 11:20:30;;;;;;;4.80;3.40;;;21.60;69.90;;;;;;6238727;28;81646;-62
2021/09/25 11:23:31;;;;;;;9.70;5.38;;;21.60;70.00;;;;;;6221092;28;79975;-62
2021/09/25 11:26:35;;;;;;;4.68;3.42;;;21.60;69.10;;;;;;6221765;28;82001;-62
2021/09/25 11:29:35;;;;;;;6.05;3.78;;;21.50;68.70;;;;;;6235778;27;81055;-62
2021/09/25 11:32:36;;;;;;;5.75;3.92;;;21.50;68.80;;;;;;6234955;27;81247;-63
2021/09/25 11:35:36;;;;;;;6.43;4.25;;;21.50;69.20;;;;;;6224572;27;80507;-63
2021/09/25 11:38:37;;;;;;;7.25;4.30;;;21.50;69.30;;;;;;6235221;27;80379;-63
2021/09/25 11:41:37;;;;;;;7.35;4.00;;;21.60;69.10;;;;;;6233837;27;80508;-62
2021/09/25 11:44:38;;;;;;;7.45;4.10;;;21.50;68.80;;;;;;6232526;27;80628;-64
2021/09/25 11:47:38;;;;;;;4.35;3.55;;;21.60;68.30;;;;;;6234521;27;82409;-64
2021/09/25 11:50:39;;;;;;;7.13;4.03;;;21.60;68.00;;;;;;6230147;27;80585;-64
2021/09/25 11:53:39;;;;;;;7.30;4.13;;;21.70;67.80;;;;;;6228360;27;81240;-63
2021/09/25 11:56:40;;;;;;;6.72;4.00;;;21.70;67.60;;;;;;6234022;27;81827;-63
2021/09/25 11:59:40;;;;;;;5.32;3.97;;;21.70;67.30;;;;;;6225354;27;81490;-63
2021/09/25 12:02:41;;;;;;;5.90;4.00;;;21.70;67.30;;;;;;6233924;27;80381;-63
2021/09/25 12:05:41;;;;;;;6.55;4.13;;;21.70;67.70;;;;;;6233785;27;81453;-64
2021/09/25 12:08:42;;;;;;;11.68;4.45;;;21.70;67.60;;;;;;6228350;27;80073;-62
2021/09/25 12:11:42;;;;;;;5.75;3.95;;;21.60;67.50;;;;;;6228613;27;81436;-62
2021/09/25 12:14:43;;;;;;;6.05;4.85;;;21.60;67.70;;;;;;6233721;27;80148;-62
2021/09/25 12:17:43;;;;;;;7.13;4.05;;;21.50;67.40;;;;;;6234710;27;80722;-62
2021/09/25 12:20:44;;;;;;;7.00;4.30;;;21.50;67.40;;;;;;6228987;27;81440;-61
2021/09/25 12:23:45;;;;;;;5.78;4.25;;;21.50;67.50;;;;;;6225769;28;80244;-61
2021/09/25 12:26:47;;;;;;;7.13;4.10;;;21.50;67.80;;;;;;6224127;27;81300;-62
2021/09/25 12:29:48;;;;;;;5.93;4.13;;;21.50;67.60;;;;;;6227669;27;80875;-64
2021/09/25 12:32:48;;;;;;;7.63;4.45;;;21.50;67.50;;;;;;6226212;27;82418;-62
2021/09/25 12:35:49;;;;;;;6.70;4.20;;;21.60;67.20;;;;;;6233593;27;80500;-62
2021/09/25 12:38:49;;;;;;;7.35;3.90;;;21.60;67.10;;;;;;6232301;28;80651;-62
2021/09/25 12:41:50;;;;;;;6.32;4.05;;;21.60;67.30;;;;;;6230206;28;80203;-61
2021/09/25 12:44:50;;;;;;;8.05;4.57;;;21.60;67.20;;;;;;6230121;27;80585;-61
2021/09/25 12:47:51;;;;;;;8.35;4.22;;;21.70;66.90;;;;;;6226914;28;81998;-63
2021/09/25 12:50:52;;;;;;;7.18;4.22;;;21.60;66.80;;;;;;6230436;27;80343;-63
2021/09/25 12:53:52;;;;;;;6.35;3.97;;;21.70;66.60;;;;;;6230975;27;80468;-63
2021/09/25 12:56:53;;;;;;;7.35;4.70;;;21.70;66.30;;;;;;6224075;27;81847;-61
2021/09/25 12:59:54;;;;;;;4.93;4.18;;;21.70;66.20;;;;;;6233486;28;81201;-62
2021/09/25 13:02:54;;;;;;;5.25;4.20;;;21.70;66.30;;;;;;6232336;27;80835;-62
2021/09/25 13:05:55;;;;;;;7.95;4.63;;;21.70;66.80;;;;;;6231632;28;80227;-62
2021/09/25 13:08:55;;;;;;;7.65;4.53;;;21.70;67.00;;;;;;6232241;27;81115;-62
2021/09/25 13:11:56;;;;;;;7.68;5.38;;;21.70;67.10;;;;;;6223340;27;80510;-62
2021/09/25 13:14:57;;;;;;;6.72;4.93;;;21.70;67.30;;;;;;6228929;28;80835;-62
2021/09/25 13:17:57;;;;;;;8.45;5.30;;;21.70;67.40;;;;;;6226523;28;81611;-62
2021/09/25 13:20:58;;;;;;;9.77;5.13;;;21.70;67.50;;;;;;6224033;27;81461;-62
2021/09/25 13:23:58;;;;;;;12.95;5.10;;;21.70;67.50;;;;;;6221205;28;82611;-62
2021/09/25 13:26:59;;;;;;;7.47;5.07;;;21.70;67.50;;;;;;6230878;27;80776;-63
2021/09/25 13:30:00;;;;;;;6.88;5.15;;;21.70;67.50;;;;;;6231839;28;80245;-63
2021/09/25 13:33:00;;;;;;;10.00;5.28;;;21.70;67.90;;;;;;6228516;28;83345;-62
2021/09/25 13:36:01;;;;;;;9.98;5.72;;;21.70;67.70;;;;;;6228426;27;80461;-61
2021/09/25 13:39:01;;;;;;;7.60;5.15;;;21.70;67.60;;;;;;6229530;28;80748;-60
2021/09/25 13:42:02;;;;;;;7.78;4.85;;;21.70;67.30;;;;;;6232681;27;81395;-61
2021/09/25 13:45:04;;;;;;;7.65;4.30;;;21.70;67.40;;;;;;6230928;27;80666;-63
2021/09/25 13:48:04;;;;;;;6.82;4.47;;;21.70;67.00;;;;;;6232188;27;81494;-62
2021/09/25 13:51:05;;;;;;;7.05;4.65;;;21.70;67.30;;;;;;6229715;28;80667;-63
2021/09/25 13:54:05;;;;;;;6.88;4.63;;;21.70;67.30;;;;;;6232471;27;81042;-63
2021/09/25 13:57:06;;;;;;;8.93;4.55;;;21.70;68.00;;;;;;6224959;28;80528;-63
2021/09/25 14:00:06;;;;;;;8.68;5.00;;;21.60;68.00;;;;;;6224452;27;81342;-63
2021/09/25 14:03:12;;;;;;;6.03;4.55;;;21.60;68.20;;;;;;6227192;27;80511;-66
2021/09/25 14:06:13;;;;;;;6.57;4.80;;;21.60;68.50;;;;;;6230450;27;84080;-63
2021/09/25 14:09:13;;;;;;;8.60;4.18;;;21.60;68.70;;;;;;6236578;27;80589;-63
2021/09/25 14:12:14;;;;;;;5.75;4.25;;;21.60;68.50;;;;;;6232160;28;80780;-63
2021/09/25 14:15:14;;;;;;;7.35;4.45;;;21.60;68.40;;;;;;6231866;28;80869;-64
2021/09/25 14:18:15;;;;;;;7.63;4.40;;;21.70;68.20;;;;;;6227750;27;80921;-64
2021/09/25 14:21:16;;;;;;;6.85;4.63;;;21.80;68.10;;;;;;6228653;28;80208;-65
2021/09/25 14:24:16;;;;;;;7.63;4.75;;;21.70;68.20;;;;;;6228866;27;80717;-61
2021/09/25 14:27:17;;;;;;;7.88;4.50;;;21.70;68.70;;;;;;6227754;28;80707;-63
2021/09/25 14:30:17;;;;;;;7.63;4.63;;;21.70;68.70;;;;;;6230749;28;81994;-64
2021/09/25 14:33:18;;;;;;;7.00;4.25;;;21.70;68.50;;;;;;6231610;28;81008;-63
2021/09/25 14:36:18;;;;;;;6.22;4.40;;;21.70;68.60;;;;;;6228710;28;81282;-64
2021/09/25 14:39:19;;;;;;;7.72;4.93;;;21.70;68.50;;;;;;6236317;27;82038;-64
2021/09/25 14:42:19;;;;;;;8.43;4.47;;;21.70;68.60;;;;;;6234833;27;80796;-63
2021/09/25 14:45:20;;;;;;;6.25;4.20;;;21.70;68.80;;;;;;6226340;27;82907;-64
2021/09/25 14:48:21;;;;;;;12.48;5.53;;;21.70;68.40;;;;;;6236571;27;80773;-62
2021/09/25 14:51:21;;;;;;;6.57;4.55;;;21.70;68.40;;;;;;6235865;27;80558;-63
2021/09/25 14:54:23;;;;;;;5.95;3.83;;;21.70;68.20;;;;;;6233983;27;81217;-64
2021/09/25 14:57:23;;;;;;;11.07;4.10;;;21.70;68.10;;;;;;6230144;27;80648;-64
2021/09/25 15:00:24;;;;;;;9.90;5.10;;;21.80;68.10;;;;;;6235841;27;80376;-63
2021/09/25 15:03:24;;;;;;;10.80;4.38;;;21.80;67.60;;;;;;6235429;27;80792;-64
2021/09/25 15:06:25;;;;;;;6.95;4.60;;;21.80;67.40;;;;;;6230506;27;80245;-62
2021/09/25 15:09:25;;;;;;;7.78;4.18;;;21.80;67.20;;;;;;6231233;27;80994;-64
2021/09/25 15:12:26;;;;;;;7.35;4.68;;;21.80;67.30;;;;;;6228397;27;80870;-62
2021/09/25 15:15:26;;;;;;;6.10;4.57;;;21.80;67.30;;;;;;6228118;28;80683;-63
2021/09/25 15:18:28;;;;;;;6.97;4.95;;;21.80;67.70;;;;;;6228252;27;80347;-63
2021/09/25 15:21:28;;;;;;;10.38;4.82;;;21.80;68.00;;;;;;6234039;27;80635;-64
2021/09/25 15:24:29;;;;;;;7.88;4.13;;;21.80;67.70;;;;;;6234658;27;80409;-65
2021/09/25 15:27:29;;;;;;;11.18;5.20;;;21.70;68.00;;;;;;6233767;27;80888;-67
2021/09/25 15:30:30;;;;;;;15.65;5.25;;;21.70;68.40;;;;;;6231777;28;81635;-65
2021/09/25 15:33:30;;;;;;;10.95;5.07;;;21.70;68.70;;;;;;6234326;27;81253;-64